Time;durP1;ratioP1;P1;durP2;ratioP2;P2;SDS_P1;SDS_P2;PMS_P1;PMS_P2;Temp;Humidity;BMP_temperature;BMP_pressure;BME280_temperature;BME280_humidity;BME280_pressure;Samples;Min_cycle;Max_cycle;Signal;HPM_P1;HPM_P2
2020/12/20 00:00:16;;;;;;;18.92;13.63;;;5.70;80.40;;;;;;4993704;28;20034;-80
2020/12/20 00:02:51;;;;;;;19.50;13.27;;;5.70;80.60;;;;;;4994285;28;20030;-79
2020/12/20 00:05:18;;;;;;;19.70;13.07;;;5.70;80.70;;;;;;4994513;28;20026;-79
2020/12/20 00:07:44;;;;;;;23.48;13.32;;;5.80;80.50;;;;;;4995048;28;20041;-78
2020/12/20 00:10:10;;;;;;;22.02;15.45;;;5.80;79.90;;;;;;4992061;28;20082;-78
2020/12/20 00:12:36;;;;;;;21.25;14.60;;;5.80;79.60;;;;;;4992450;28;20374;-77
2020/12/20 00:15:03;;;;;;;22.65;14.45;;;5.80;79.80;;;;;;4994107;28;20038;-79
2020/12/20 00:17:29;;;;;;;25.23;14.35;;;5.80;80.20;;;;;;4994607;28;20482;-80
2020/12/20 00:19:55;;;;;;;21.40;14.73;;;5.70;79.80;;;;;;4995156;28;20030;-80
2020/12/20 00:22:20;;;;;;;21.27;14.38;;;5.70;79.90;;;;;;4993138;28;20041;-79
2020/12/20 00:24:46;;;;;;;21.98;14.82;;;5.80;79.80;;;;;;4994654;28;20027;-76
2020/12/20 00:27:11;;;;;;;21.35;14.60;;;5.70;79.70;;;;;;4995182;28;20034;-78
2020/12/20 00:29:38;;;;;;;23.15;14.43;;;5.80;79.90;;;;;;4996374;28;20089;-79
2020/12/20 00:32:05;;;;;;;22.55;15.30;;;5.80;79.30;;;;;;4993824;28;20034;-77
2020/12/20 00:34:31;;;;;;;21.48;14.48;;;5.80;79.70;;;;;;4993361;28;20391;-78
2020/12/20 00:36:57;;;;;;;22.63;14.75;;;5.70;80.00;;;;;;4977059;28;20034;-78
2020/12/20 00:39:23;;;;;;;22.83;14.52;;;5.70;80.30;;;;;;4994489;28;20031;-79
2020/12/20 00:41:57;;;;;;;24.13;15.52;;;5.70;80.50;;;;;;4994177;28;20443;-77
2020/12/20 00:44:24;;;;;;;22.65;15.80;;;5.70;80.70;;;;;;4974702;28;20030;-78
2020/12/20 00:46:52;;;;;;;23.65;16.00;;;5.80;80.40;;;;;;4992354;28;20436;-80
2020/12/20 00:49:17;;;;;;;24.48;15.82;;;5.70;80.60;;;;;;4994532;28;20065;-78
2020/12/20 00:51:43;;;;;;;24.98;15.45;;;5.70;80.90;;;;;;4994189;28;20058;-79
2020/12/20 00:54:09;;;;;;;21.83;14.20;;;5.70;80.60;;;;;;4993564;28;20034;-78
2020/12/20 00:56:35;;;;;;;23.83;15.32;;;5.70;81.00;;;;;;4992983;28;20034;-78
2020/12/20 00:59:01;;;;;;;22.13;14.88;;;5.70;81.40;;;;;;4993528;28;20037;-79
2020/12/20 01:01:27;;;;;;;22.45;15.05;;;5.80;80.40;;;;;;4993654;28;20037;-79
2020/12/20 01:03:54;;;;;;;22.30;15.27;;;5.80;80.60;;;;;;4993541;28;20026;-79
2020/12/20 01:06:22;;;;;;;22.00;14.48;;;5.80;80.40;;;;;;4994188;28;20038;-78
2020/12/20 01:08:48;;;;;;;20.95;14.55;;;5.80;80.40;;;;;;4993475;28;20093;-81
2020/12/20 01:11:15;;;;;;;21.58;14.50;;;5.90;80.20;;;;;;4992903;28;20085;-78
2020/12/20 01:13:48;;;;;;;24.92;14.45;;;5.90;79.90;;;;;;4992726;28;20041;-79
2020/12/20 01:16:15;;;;;;;24.38;15.27;;;5.90;79.80;;;;;;4993370;28;20045;-79
2020/12/20 01:18:41;;;;;;;23.23;15.10;;;5.80;80.20;;;;;;4993291;28;20468;-79
2020/12/20 01:21:07;;;;;;;20.40;14.35;;;5.80;80.20;;;;;;4992644;28;20038;-77
2020/12/20 01:23:32;;;;;;;20.02;14.13;;;5.70;80.10;;;;;;4993222;28;20034;-78
2020/12/20 01:26:01;;;;;;;22.80;14.25;;;5.80;80.60;;;;;;4993086;28;20077;-78
2020/12/20 01:28:28;;;;;;;23.55;15.02;;;5.70;80.70;;;;;;4992130;28;20102;-79
2020/12/20 01:30:55;;;;;;;23.88;15.27;;;5.70;80.80;;;;;;4993508;28;20113;-77
2020/12/20 01:33:21;;;;;;;22.83;15.68;;;5.70;80.80;;;;;;4992621;28;20069;-77
2020/12/20 01:35:47;;;;;;;24.38;14.90;;;5.70;80.40;;;;;;4993019;28;20133;-77
2020/12/20 01:38:13;;;;;;;21.27;14.15;;;5.70;80.30;;;;;;4992186;28;20045;-77
2020/12/20 01:40:39;;;;;;;22.00;14.57;;;5.70;79.80;;;;;;4993131;28;20065;-78
2020/12/20 01:43:05;;;;;;;20.90;14.27;;;5.70;80.50;;;;;;4992149;28;20030;-70
2020/12/20 01:45:30;;;;;;;24.40;16.13;;;5.70;80.30;;;;;;4992960;28;20057;-78
2020/12/20 01:47:56;;;;;;;21.75;15.55;;;5.70;80.40;;;;;;4993414;28;20034;-78
2020/12/20 01:50:22;;;;;;;22.42;14.77;;;5.80;80.30;;;;;;4992671;28;20065;-78
2020/12/20 01:52:48;;;;;;;23.98;15.38;;;5.80;80.00;;;;;;4993612;28;20054;-78
2020/12/20 01:55:17;;;;;;;24.67;15.18;;;5.90;80.00;;;;;;4992151;28;20080;-80
2020/12/20 01:57:43;;;;;;;24.25;14.77;;;5.80;79.70;;;;;;4992801;28;20034;-78
2020/12/20 02:00:08;;;;;;;22.63;14.98;;;5.90;79.70;;;;;;5059511;22;20054;-62
2020/12/20 02:02:34;;;;;;;23.30;14.98;;;5.90;79.40;;;;;;5022378;28;20026;-63
2020/12/20 02:05:00;;;;;;;23.52;15.55;;;6.00;79.50;;;;;;5012293;28;20036;-62
2020/12/20 02:07:26;;;;;;;20.33;13.93;;;6.00;79.20;;;;;;5011773;28;20249;-61
2020/12/20 02:09:52;;;;;;;25.98;14.90;;;6.00;78.80;;;;;;5017645;28;20036;-61
2020/12/20 02:12:17;;;;;;;20.35;14.02;;;6.00;78.80;;;;;;5030472;28;20112;-63
2020/12/20 02:14:43;;;;;;;20.90;13.73;;;5.90;79.00;;;;;;5032132;28;20456;-63
2020/12/20 02:17:08;;;;;;;19.88;13.50;;;6.00;78.70;;;;;;5030896;28;20029;-63
2020/12/20 02:19:34;;;;;;;18.88;12.73;;;6.00;78.70;;;;;;5030138;28;20037;-62
2020/12/20 02:22:00;;;;;;;21.95;14.43;;;5.90;78.80;;;;;;5015763;28;20025;-62
2020/12/20 02:24:26;;;;;;;18.70;13.13;;;5.90;79.20;;;;;;5021529;28;20081;-63
2020/12/20 02:26:52;;;;;;;16.42;11.82;;;5.90;79.30;;;;;;5023297;28;20056;-63
2020/12/20 02:29:18;;;;;;;16.90;11.75;;;5.90;79.10;;;;;;5029575;28;20038;-63
2020/12/20 02:31:44;;;;;;;16.95;12.23;;;6.00;80.00;;;;;;5029530;28;20029;-62
2020/12/20 02:34:10;;;;;;;17.52;12.05;;;6.00;79.10;;;;;;5011320;28;20029;-63
2020/12/20 02:36:37;;;;;;;18.85;11.40;;;6.00;78.90;;;;;;5011934;28;20037;-63
2020/12/20 02:39:08;;;;;;;14.75;10.57;;;5.90;78.60;;;;;;5023548;28;20038;-63
2020/12/20 02:41:35;;;;;;;13.88;9.48;;;5.90;79.10;;;;;;5014212;28;20045;-62
2020/12/20 02:44:00;;;;;;;17.35;10.48;;;5.70;79.80;;;;;;5015369;28;20026;-63
2020/12/20 02:46:27;;;;;;;15.52;10.05;;;5.70;80.10;;;;;;5015875;28;20048;-62
2020/12/20 02:48:53;;;;;;;12.15;8.13;;;5.80;80.30;;;;;;5015815;28;20360;-62
2020/12/20 02:51:19;;;;;;;13.60;8.00;;;5.80;79.80;;;;;;5023371;28;20425;-62
2020/12/20 02:53:48;;;;;;;12.98;8.95;;;5.80;79.40;;;;;;5033900;28;20095;-62
2020/12/20 02:56:13;;;;;;;12.80;8.85;;;5.80;80.10;;;;;;5029171;28;20033;-64
2020/12/20 02:58:40;;;;;;;13.23;8.20;;;5.80;80.40;;;;;;4994665;28;20037;-62
2020/12/20 03:01:06;;;;;;;10.40;7.30;;;5.80;80.00;;;;;;5039349;28;20064;-62
2020/12/20 03:03:32;;;;;;;11.75;7.50;;;5.80;79.90;;;;;;5044656;28;20031;-63
2020/12/20 03:05:57;;;;;;;9.35;6.45;;;5.80;79.90;;;;;;5054729;28;20029;-63
2020/12/20 03:08:23;;;;;;;10.38;7.32;;;5.80;80.20;;;;;;5016529;28;20038;-62
2020/12/20 03:10:49;;;;;;;10.60;7.07;;;5.70;79.80;;;;;;5034969;28;20028;-61
2020/12/20 03:13:15;;;;;;;9.60;7.22;;;5.70;79.80;;;;;;5047044;28;20033;-63
2020/12/20 03:15:44;;;;;;;10.73;7.28;;;5.60;80.10;;;;;;5055142;28;20355;-62
2020/12/20 03:18:10;;;;;;;9.95;6.22;;;5.60;80.10;;;;;;5053769;28;20033;-66
2020/12/20 03:20:36;;;;;;;8.25;5.68;;;5.70;80.20;;;;;;5046575;28;20037;-62
2020/12/20 03:23:04;;;;;;;8.40;5.00;;;5.80;79.90;;;;;;5029298;28;20037;-62
2020/12/20 03:25:30;;;;;;;7.88;5.35;;;5.70;79.70;;;;;;5032256;28;20113;-61
2020/12/20 03:27:56;;;;;;;7.22;5.20;;;5.70;80.00;;;;;;5041952;28;20107;-62
2020/12/20 03:30:22;;;;;;;7.97;5.28;;;5.80;79.90;;;;;;5049535;28;20457;-66
2020/12/20 03:32:48;;;;;;;8.02;5.32;;;5.80;79.50;;;;;;5007703;28;20117;-60
2020/12/20 03:35:14;;;;;;;9.38;5.72;;;5.80;79.80;;;;;;5026308;28;20036;-63
2020/12/20 03:37:51;;;;;;;8.35;5.68;;;5.80;79.40;;;;;;5053687;28;20021;-62
2020/12/20 03:40:19;;;;;;;8.70;6.15;;;5.80;79.60;;;;;;5038517;28;20037;-64
2020/12/20 03:42:46;;;;;;;9.27;5.72;;;5.70;79.90;;;;;;5042036;28;20021;-63
2020/12/20 03:45:15;;;;;;;8.95;6.30;;;5.60;80.10;;;;;;5034068;28;20075;-66
2020/12/20 03:47:43;;;;;;;8.95;6.30;;;5.70;80.50;;;;;;5036606;28;20029;-63
2020/12/20 03:50:09;;;;;;;10.10;6.60;;;5.80;80.00;;;;;;5054140;28;20052;-62
2020/12/20 03:52:34;;;;;;;9.45;6.38;;;5.90;79.90;;;;;;5026116;28;20390;-62
2020/12/20 03:55:00;;;;;;;13.15;7.53;;;5.90;79.30;;;;;;5029274;28;20021;-62
2020/12/20 03:57:26;;;;;;;12.60;6.97;;;5.80;79.50;;;;;;5053530;28;20025;-62
2020/12/20 03:59:52;;;;;;;11.63;7.28;;;5.80;80.00;;;;;;5046441;28;20053;-63
2020/12/20 04:02:17;;;;;;;13.50;7.57;;;5.80;79.90;;;;;;5035459;28;20026;-62
2020/12/20 04:04:43;;;;;;;15.45;8.38;;;5.70;79.80;;;;;;5007008;28;20041;-62
2020/12/20 04:07:09;;;;;;;13.57;8.57;;;5.70;79.90;;;;;;5048767;28;20396;-62
2020/12/20 04:09:34;;;;;;;13.68;7.80;;;5.60;80.60;;;;;;5043703;28;20024;-62
2020/12/20 04:12:02;;;;;;;15.30;8.85;;;5.60;80.80;;;;;;5035452;28;20441;-63
2020/12/20 04:14:28;;;;;;;13.23;8.45;;;5.60;80.60;;;;;;5052614;28;20028;-62
2020/12/20 04:16:53;;;;;;;14.00;8.30;;;5.60;80.00;;;;;;5044633;28;20466;-62
2020/12/20 04:19:19;;;;;;;14.15;8.07;;;5.50;79.50;;;;;;5033573;28;20519;-61
2020/12/20 04:21:45;;;;;;;13.77;8.02;;;5.50;80.20;;;;;;5037946;28;20017;-61
2020/12/20 04:24:10;;;;;;;13.75;8.70;;;5.60;79.90;;;;;;5030364;28;20100;-62
2020/12/20 04:26:36;;;;;;;12.38;7.53;;;5.70;79.40;;;;;;5021133;28;20028;-62
2020/12/20 04:29:02;;;;;;;11.55;6.93;;;5.70;78.70;;;;;;5011836;28;20032;-61
2020/12/20 04:31:28;;;;;;;13.10;8.00;;;5.70;78.20;;;;;;5024273;28;20022;-62
2020/12/20 04:33:53;;;;;;;13.05;7.53;;;5.60;78.80;;;;;;5028379;28;20460;-61
2020/12/20 04:36:19;;;;;;;12.10;7.57;;;5.60;79.10;;;;;;5048968;28;20033;-62
2020/12/20 04:38:45;;;;;;;12.35;7.57;;;5.60;78.80;;;;;;5039147;28;20029;-61
2020/12/20 04:41:11;;;;;;;11.40;6.88;;;5.60;78.70;;;;;;5015668;28;20525;-62
2020/12/20 04:43:39;;;;;;;10.90;7.20;;;5.60;78.80;;;;;;5032664;28;20036;-62
2020/12/20 04:46:05;;;;;;;13.23;8.15;;;5.60;79.00;;;;;;5036750;28;20036;-62
2020/12/20 04:48:39;;;;;;;11.38;7.18;;;5.70;79.00;;;;;;5034299;28;20128;-62
2020/12/20 04:51:06;;;;;;;12.32;7.57;;;5.70;78.80;;;;;;5041237;28;20028;-63
2020/12/20 04:53:33;;;;;;;11.25;6.90;;;5.70;78.80;;;;;;5032369;28;20120;-62
2020/12/20 04:56:10;;;;;;;11.15;7.32;;;5.70;78.00;;;;;;5032912;28;20036;-61
2020/12/20 04:58:37;;;;;;;12.10;6.63;;;5.70;78.30;;;;;;5048202;28;20095;-61
2020/12/20 05:01:05;;;;;;;12.10;7.18;;;5.80;78.20;;;;;;5022582;28;20262;-62
2020/12/20 05:03:31;;;;;;;13.02;7.57;;;5.80;77.70;;;;;;5051738;28;20029;-62
2020/12/20 05:05:57;;;;;;;12.77;7.40;;;5.70;77.90;;;;;;5052589;28;20075;-63
2020/12/20 05:08:24;;;;;;;14.05;7.93;;;5.80;78.00;;;;;;5051499;28;20060;-61
2020/12/20 05:10:54;;;;;;;12.52;7.90;;;5.80;78.10;;;;;;5040673;28;20053;-62
2020/12/20 05:13:23;;;;;;;14.00;8.15;;;5.80;78.20;;;;;;5037764;28;20116;-62
2020/12/20 05:15:49;;;;;;;12.63;7.75;;;5.80;78.00;;;;;;5023623;28;20017;-61
2020/12/20 05:18:17;;;;;;;12.50;7.45;;;5.80;77.90;;;;;;5033091;28;20056;-62
2020/12/20 05:20:44;;;;;;;12.52;7.30;;;5.80;77.90;;;;;;5032891;28;20049;-62
2020/12/20 05:23:11;;;;;;;15.38;8.48;;;5.70;77.90;;;;;;5047725;28;20028;-62
2020/12/20 05:25:39;;;;;;;12.88;8.45;;;5.70;78.70;;;;;;5033848;28;20025;-61
2020/12/20 05:28:04;;;;;;;14.60;8.52;;;5.70;78.70;;;;;;5031236;28;20029;-64
2020/12/20 05:30:30;;;;;;;12.15;7.40;;;5.70;78.30;;;;;;5025740;28;20389;-62
2020/12/20 05:32:56;;;;;;;13.20;8.43;;;5.60;78.20;;;;;;5037803;28;20446;-61
2020/12/20 05:35:21;;;;;;;11.40;6.80;;;5.60;78.60;;;;;;5031707;28;20033;-62
2020/12/20 05:37:47;;;;;;;13.30;8.38;;;5.60;78.40;;;;;;5049905;28;20029;-62
2020/12/20 05:40:34;;;;;;;12.32;7.80;;;5.50;79.10;;;;;;5050960;28;20099;-62
2020/12/20 05:43:02;;;;;;;12.93;7.75;;;5.60;79.00;;;;;;5044434;28;20155;-62
2020/12/20 05:45:31;;;;;;;13.13;8.35;;;5.60;78.90;;;;;;5031548;28;20025;-62
2020/12/20 05:47:56;;;;;;;14.50;8.73;;;5.60;78.80;;;;;;5045301;28;20178;-62
2020/12/20 05:50:29;;;;;;;14.48;8.32;;;5.60;79.10;;;;;;5051755;28;20084;-62
2020/12/20 05:53:05;;;;;;;15.45;9.13;;;5.60;78.80;;;;;;5049138;28;20021;-61
2020/12/20 05:55:39;;;;;;;13.35;7.88;;;5.70;78.90;;;;;;5042788;28;20096;-62
2020/12/20 05:58:11;;;;;;;;;;;5.70;79.00;;;;;;5038725;28;20200;-62
2020/12/20 06:00:39;;;;;;;12.63;7.78;;;5.70;78.60;;;;;;5021102;28;19917;-62
2020/12/20 06:03:23;;;;;;;13.10;8.13;;;5.70;78.70;;;;;;5018922;28;20048;-62
2020/12/20 06:05:49;;;;;;;14.15;8.52;;;5.70;78.60;;;;;;5020153;28;20065;-62
2020/12/20 06:08:17;;;;;;;14.10;8.20;;;5.80;78.60;;;;;;5017812;28;20062;-62
2020/12/20 06:10:47;;;;;;;14.23;8.00;;;5.80;78.30;;;;;;5010707;28;20029;-62
2020/12/20 06:13:14;;;;;;;12.38;7.68;;;5.80;77.70;;;;;;5025135;28;20021;-61
2020/12/20 06:15:41;;;;;;;12.35;7.10;;;5.80;77.90;;;;;;5031569;28;20519;-61
2020/12/20 06:18:15;;;;;;;10.57;6.82;;;5.90;78.20;;;;;;5031959;28;20018;-62
2020/12/20 06:21:03;;;;;;;11.82;7.18;;;5.90;77.50;;;;;;5030390;28;20026;-62
2020/12/20 06:23:30;;;;;;;13.32;6.95;;;5.80;77.20;;;;;;5034831;28;20084;-64
2020/12/20 06:25:57;;;;;;;12.77;7.82;;;5.80;77.80;;;;;;5050289;28;20053;-62
2020/12/20 06:28:32;;;;;;;10.80;7.32;;;5.90;77.90;;;;;;5027111;28;20204;-62
2020/12/20 06:30:59;;;;;;;15.43;7.50;;;5.80;77.40;;;;;;5015618;28;20069;-62
2020/12/20 06:33:45;;;;;;;12.65;7.85;;;5.80;77.50;;;;;;5014284;28;20053;-62
2020/12/20 06:36:13;;;;;;;12.20;8.05;;;5.90;77.80;;;;;;5029419;28;20079;-62
2020/12/20 06:38:39;;;;;;;10.35;6.90;;;6.00;77.30;;;;;;5033574;28;20045;-63
2020/12/20 06:41:06;;;;;;;11.75;6.95;;;5.90;77.20;;;;;;5035517;28;20024;-62
2020/12/20 06:43:34;;;;;;;12.20;7.25;;;5.90;77.60;;;;;;5034861;28;20116;-60
2020/12/20 06:46:01;;;;;;;11.15;7.63;;;5.90;77.90;;;;;;5035630;28;20029;-62
2020/12/20 06:48:31;;;;;;;11.70;7.60;;;5.80;77.90;;;;;;5025922;28;20038;-61
2020/12/20 06:50:57;;;;;;;13.45;8.10;;;5.80;78.00;;;;;;5024357;28;20017;-61
2020/12/20 06:53:53;;;;;;;12.93;7.63;;;5.80;78.80;;;;;;5034717;28;20086;-63
2020/12/20 06:56:23;;;;;;;11.95;7.25;;;5.90;78.20;;;;;;5016165;28;20343;-62
2020/12/20 06:58:50;;;;;;;11.00;7.50;;;5.90;77.70;;;;;;5015654;28;20117;-62
2020/12/20 07:01:40;;;;;;;11.43;6.43;;;5.80;78.00;;;;;;5034084;28;20049;-62
2020/12/20 07:04:15;;;;;;;12.13;6.80;;;5.80;76.80;;;;;;5044435;28;20041;-61
2020/12/20 07:06:41;;;;;;;12.30;7.40;;;5.60;78.10;;;;;;5054253;28;20038;-61
2020/12/20 07:09:08;;;;;;;11.05;7.22;;;5.60;78.30;;;;;;5020981;28;20453;-62
2020/12/20 07:11:42;;;;;;;12.05;7.78;;;5.70;78.40;;;;;;5052798;28;20025;-62
2020/12/20 07:14:19;;;;;;;11.38;7.43;;;5.70;78.00;;;;;;5054948;28;20017;-62
2020/12/20 07:16:45;;;;;;;11.60;6.70;;;5.70;78.70;;;;;;5044022;28;20056;-62
2020/12/20 07:19:23;;;;;;;11.40;6.65;;;5.70;77.80;;;;;;5046135;28;20033;-61
2020/12/20 07:21:58;;;;;;;10.15;6.00;;;5.70;78.20;;;;;;5039127;28;20028;-62
2020/12/20 07:24:29;;;;;;;9.38;6.47;;;5.70;77.60;;;;;;5034419;28;20457;-63
2020/12/20 07:27:00;;;;;;;10.50;5.65;;;5.70;78.10;;;;;;5037126;28;20037;-62
2020/12/20 07:29:27;;;;;;;10.35;5.70;;;5.80;77.90;;;;;;5051811;28;20033;-62
2020/12/20 07:31:55;;;;;;;8.63;5.80;;;5.70;77.30;;;;;;5041375;28;20028;-62
2020/12/20 07:34:23;;;;;;;9.23;5.95;;;5.70;77.70;;;;;;5053261;28;20032;-62
2020/12/20 07:36:49;;;;;;;8.45;5.20;;;5.80;77.60;;;;;;5054361;28;20441;-62
2020/12/20 07:39:15;;;;;;;8.57;5.43;;;5.80;77.20;;;;;;5047343;28;20083;-62
2020/12/20 07:41:41;;;;;;;8.93;5.35;;;5.80;77.30;;;;;;5035488;28;20033;-62
2020/12/20 07:44:08;;;;;;;7.35;4.90;;;5.80;77.10;;;;;;5017710;28;20026;-61
2020/12/20 07:46:35;;;;;;;8.00;5.40;;;5.90;76.80;;;;;;5033538;28;20029;-63
2020/12/20 07:49:12;;;;;;;10.50;5.38;;;5.90;76.40;;;;;;5016841;28;20026;-62
2020/12/20 07:51:38;;;;;;;7.78;4.75;;;5.90;76.00;;;;;;5017693;28;20087;-62
2020/12/20 07:54:12;;;;;;;8.13;5.53;;;5.90;76.00;;;;;;5051915;28;20532;-64
2020/12/20 07:56:38;;;;;;;;;;;5.80;76.40;;;;;;5035886;28;20515;-62
2020/12/20 07:59:09;;;;;;;6.50;4.28;;;5.90;76.20;;;;;;5049816;28;19955;-61
2020/12/20 08:01:36;;;;;;;6.75;4.55;;;5.80;75.70;;;;;;5038329;28;20354;-62
2020/12/20 08:04:07;;;;;;;7.05;5.03;;;5.80;76.10;;;;;;5053309;28;20108;-61
2020/12/20 08:06:44;;;;;;;7.18;5.30;;;5.90;76.60;;;;;;5043669;28;20156;-62
2020/12/20 08:09:12;;;;;;;8.35;5.88;;;5.90;76.00;;;;;;5015589;28;20450;-62
2020/12/20 08:11:39;;;;;;;10.00;6.25;;;6.00;76.40;;;;;;5032862;28;20072;-62
2020/12/20 08:14:07;;;;;;;10.38;6.13;;;6.00;76.80;;;;;;5054217;28;20502;-62
2020/12/20 08:16:38;;;;;;;10.48;6.82;;;6.00;76.90;;;;;;5049622;28;20324;-63
2020/12/20 08:19:05;;;;;;;10.10;6.57;;;6.10;77.10;;;;;;5033745;28;20032;-61
2020/12/20 08:22:03;;;;;;;10.07;6.38;;;6.10;77.20;;;;;;5034390;28;20060;-63
2020/12/20 08:24:42;;;;;;;9.88;6.35;;;6.00;77.50;;;;;;5035466;28;20063;-63
2020/12/20 08:27:25;;;;;;;9.60;6.25;;;6.10;77.50;;;;;;5050573;28;20037;-63
2020/12/20 08:29:54;;;;;;;10.73;6.57;;;6.10;77.70;;;;;;5033709;28;20034;-63
2020/12/20 08:32:42;;;;;;;9.57;6.95;;;6.10;78.20;;;;;;5034613;28;20068;-64
2020/12/20 08:35:18;;;;;;;11.05;6.88;;;6.10;78.00;;;;;;5035406;28;20079;-61
2020/12/20 08:37:45;;;;;;;9.32;6.55;;;6.10;78.00;;;;;;5048137;28;20070;-62
2020/12/20 08:40:15;;;;;;;11.07;6.60;;;6.20;78.00;;;;;;5034233;28;20104;-61
2020/12/20 08:43:01;;;;;;;10.88;6.78;;;6.20;78.70;;;;;;5034899;28;20025;-61
2020/12/20 08:45:28;;;;;;;11.13;7.47;;;6.20;78.20;;;;;;5052669;28;20036;-65
2020/12/20 08:48:00;;;;;;;10.75;6.15;;;6.10;79.20;;;;;;5051992;28;20033;-63
2020/12/20 08:50:28;;;;;;;11.82;6.85;;;6.10;78.80;;;;;;5053249;28;20029;-63
2020/12/20 08:53:06;;;;;;;10.32;7.05;;;6.10;78.40;;;;;;5053108;28;20029;-62
2020/12/20 08:55:32;;;;;;;10.10;6.28;;;6.20;78.10;;;;;;5052456;28;20027;-62
2020/12/20 08:58:03;;;;;;;8.40;6.35;;;6.20;77.90;;;;;;5052637;28;20017;-62
2020/12/20 09:00:28;;;;;;;9.27;6.40;;;6.20;78.00;;;;;;5041016;28;20045;-63
2020/12/20 09:02:59;;;;;;;9.95;6.60;;;6.30;77.50;;;;;;5042568;28;20032;-62
2020/12/20 09:05:29;;;;;;;9.05;6.07;;;6.20;77.80;;;;;;5041349;28;20385;-62
2020/12/20 09:07:57;;;;;;;8.45;5.80;;;6.30;77.60;;;;;;5049984;28;20040;-61
2020/12/20 09:10:30;;;;;;;9.30;6.07;;;6.30;77.80;;;;;;5041186;28;20021;-61
2020/12/20 09:13:07;;;;;;;10.23;6.47;;;6.20;77.90;;;;;;5042186;28;20021;-62
2020/12/20 09:15:35;;;;;;;10.20;6.40;;;6.30;78.10;;;;;;5024934;28;20029;-62
2020/12/20 09:18:13;;;;;;;9.13;5.72;;;6.30;78.40;;;;;;5042721;28;20014;-61
2020/12/20 09:20:41;;;;;;;10.00;6.32;;;6.30;77.50;;;;;;5041843;28;20045;-61
2020/12/20 09:23:22;;;;;;;9.00;5.68;;;6.20;78.20;;;;;;5022456;28;20029;-62
2020/12/20 09:25:49;;;;;;;9.63;5.78;;;6.20;77.80;;;;;;5041221;28;20296;-61
2020/12/20 09:28:35;;;;;;;10.15;5.72;;;6.30;77.90;;;;;;5040135;28;20025;-61
2020/12/20 09:31:10;;;;;;;8.98;5.63;;;6.40;78.00;;;;;;5040168;28;20088;-62
2020/12/20 09:33:38;;;;;;;8.88;5.40;;;6.40;77.50;;;;;;5042772;28;20024;-62
2020/12/20 09:36:12;;;;;;;9.23;5.50;;;6.30;77.40;;;;;;5043307;28;20128;-63
2020/12/20 09:39:04;;;;;;;8.40;5.50;;;6.20;77.80;;;;;;5024827;28;20083;-62
2020/12/20 09:41:31;;;;;;;8.95;5.68;;;6.30;77.70;;;;;;5038223;28;20036;-61
2020/12/20 09:43:58;;;;;;;8.02;5.22;;;6.30;77.20;;;;;;5022003;28;20045;-61
2020/12/20 09:46:29;;;;;;;9.75;5.95;;;6.30;77.20;;;;;;5041105;28;20473;-62
2020/12/20 09:48:56;;;;;;;8.60;5.40;;;6.40;77.20;;;;;;5041614;28;20433;-62
2020/12/20 09:51:23;;;;;;;9.68;5.80;;;6.40;77.00;;;;;;5004666;28;20027;-62
2020/12/20 09:53:49;;;;;;;9.07;5.38;;;6.40;76.80;;;;;;5040246;28;20017;-61
2020/12/20 09:56:18;;;;;;;8.75;5.30;;;6.40;76.30;;;;;;5039647;28;20021;-62
2020/12/20 09:58:45;;;;;;;7.78;5.47;;;6.40;76.30;;;;;;5040283;28;20095;-62
2020/12/20 10:01:28;;;;;;;7.95;5.75;;;6.40;76.80;;;;;;5045675;28;20182;-63
2020/12/20 10:03:54;;;;;;;7.43;5.53;;;6.50;76.90;;;;;;5041953;28;20074;-62
2020/12/20 10:06:19;;;;;;;8.55;5.18;;;6.50;76.50;;;;;;5041053;28;20025;-62
2020/12/20 10:08:45;;;;;;;8.02;5.40;;;6.50;76.30;;;;;;5041988;28;20147;-62
2020/12/20 10:11:16;;;;;;;7.35;5.32;;;6.50;76.40;;;;;;5042398;28;20025;-62
2020/12/20 10:13:41;;;;;;;6.63;5.03;;;6.60;75.90;;;;;;5016314;28;20057;-63
2020/12/20 10:16:07;;;;;;;7.75;5.45;;;6.40;75.60;;;;;;5031585;28;20148;-63
2020/12/20 10:18:32;;;;;;;7.47;5.43;;;6.40;75.90;;;;;;5032511;28;20469;-63
2020/12/20 10:20:58;;;;;;;10.65;6.10;;;6.40;76.00;;;;;;5048315;28;20403;-63
2020/12/20 10:23:23;;;;;;;9.35;6.07;;;6.40;76.30;;;;;;5051661;28;20025;-62
2020/12/20 10:25:49;;;;;;;9.95;6.00;;;6.40;75.90;;;;;;5050787;28;20465;-62
2020/12/20 10:28:15;;;;;;;7.57;5.68;;;6.40;75.90;;;;;;5038028;28;20108;-63
2020/12/20 10:30:40;;;;;;;7.93;5.45;;;6.40;76.10;;;;;;5014982;28;20034;-67
2020/12/20 10:33:06;;;;;;;10.10;5.85;;;6.30;75.90;;;;;;5018782;28;20033;-67
2020/12/20 10:35:32;;;;;;;8.63;5.85;;;6.30;76.40;;;;;;5033586;28;20481;-67
2020/12/20 10:37:58;;;;;;;11.93;6.25;;;6.20;76.10;;;;;;5030927;28;20790;-68
2020/12/20 10:40:24;;;;;;;9.75;6.28;;;6.20;76.80;;;;;;5041556;28;20442;-66
2020/12/20 10:42:50;;;;;;;8.25;5.78;;;6.20;76.70;;;;;;5037581;28;20055;-67
2020/12/20 10:45:16;;;;;;;12.27;8.07;;;6.20;77.10;;;;;;5049931;28;20025;-68
2020/12/20 10:47:42;;;;;;;8.18;5.75;;;6.30;77.60;;;;;;5035958;28;20037;-65
2020/12/20 10:50:08;;;;;;;7.05;5.40;;;6.20;76.00;;;;;;5038537;28;20117;-66
2020/12/20 10:52:34;;;;;;;7.88;5.40;;;6.20;76.10;;;;;;5040305;28;20445;-70
2020/12/20 10:55:00;;;;;;;8.40;5.75;;;6.20;75.70;;;;;;5049626;28;20033;-67
2020/12/20 10:57:27;;;;;;;6.78;4.70;;;6.20;75.50;;;;;;5028383;28;20122;-66
2020/12/20 10:59:52;;;;;;;7.95;4.55;;;6.20;75.20;;;;;;5033215;28;20052;-64
2020/12/20 11:02:18;;;;;;;7.50;4.85;;;6.20;75.00;;;;;;5041579;28;20024;-66
2020/12/20 11:04:44;;;;;;;7.43;5.05;;;6.10;74.40;;;;;;5018066;28;20029;-65
2020/12/20 11:07:10;;;;;;;9.90;5.68;;;6.20;75.00;;;;;;5023942;28;20086;-63
2020/12/20 11:09:36;;;;;;;8.48;6.10;;;6.30;75.10;;;;;;5041105;28;20038;-63
2020/12/20 11:12:04;;;;;;;7.70;5.68;;;6.40;75.20;;;;;;5052775;28;20463;-63
2020/12/20 11:14:32;;;;;;;9.18;5.82;;;6.40;75.50;;;;;;5043605;28;20025;-65
2020/12/20 11:16:58;;;;;;;6.80;5.10;;;6.40;75.80;;;;;;5035975;28;20031;-62
2020/12/20 11:19:24;;;;;;;6.95;4.63;;;6.40;75.40;;;;;;5040133;28;20035;-64
2020/12/20 11:21:50;;;;;;;6.55;4.30;;;6.30;75.80;;;;;;5033753;28;20029;-64
2020/12/20 11:24:16;;;;;;;10.32;6.15;;;6.20;74.70;;;;;;5050059;28;20052;-65
2020/12/20 11:26:44;;;;;;;8.18;4.97;;;6.20;75.70;;;;;;5040849;28;20029;-64
2020/12/20 11:29:10;;;;;;;7.60;4.85;;;6.20;75.40;;;;;;5049515;28;20037;-65
2020/12/20 11:31:36;;;;;;;9.38;5.15;;;6.30;75.80;;;;;;5030040;28;20025;-65
2020/12/20 11:34:02;;;;;;;6.68;4.63;;;6.10;76.50;;;;;;5023687;28;20545;-65
2020/12/20 11:36:27;;;;;;;7.25;4.85;;;6.10;76.60;;;;;;5039527;28;20032;-65
2020/12/20 11:38:53;;;;;;;7.20;4.75;;;6.20;76.70;;;;;;5044268;28;20021;-65
2020/12/20 11:41:23;;;;;;;8.48;5.38;;;6.20;76.40;;;;;;5048921;28;20104;-64
2020/12/20 11:43:50;;;;;;;8.50;5.22;;;6.30;76.50;;;;;;5026200;28;20029;-65
2020/12/20 11:46:16;;;;;;;6.40;4.75;;;6.30;76.50;;;;;;5027189;28;20032;-64
2020/12/20 11:48:42;;;;;;;11.05;6.28;;;6.40;76.20;;;;;;5050757;28;20036;-63
2020/12/20 11:51:12;;;;;;;8.35;5.63;;;6.40;76.20;;;;;;5031581;28;20026;-65
2020/12/20 11:53:37;;;;;;;9.45;5.28;;;6.40;75.40;;;;;;5047614;28;20036;-64
2020/12/20 11:56:07;;;;;;;7.07;4.68;;;6.40;75.40;;;;;;5039319;28;20033;-67
2020/12/20 11:58:33;;;;;;;6.18;4.50;;;6.40;75.70;;;;;;5045227;28;20060;-69
2020/12/20 12:00:59;;;;;;;10.45;5.50;;;6.50;75.30;;;;;;5041276;28;20132;-65
2020/12/20 12:03:25;;;;;;;8.13;5.25;;;6.40;75.60;;;;;;5025440;28;20596;-64
2020/12/20 12:05:50;;;;;;;7.20;5.28;;;6.50;75.90;;;;;;5046198;28;20025;-64
2020/12/20 12:08:16;;;;;;;6.45;4.18;;;6.50;75.60;;;;;;5044413;28;20025;-64
2020/12/20 12:10:45;;;;;;;5.53;4.10;;;6.50;73.90;;;;;;5043078;28;20025;-65
2020/12/20 12:13:11;;;;;;;7.28;4.97;;;6.50;74.40;;;;;;5024882;28;20107;-62
2020/12/20 12:15:38;;;;;;;6.68;4.30;;;6.70;74.00;;;;;;5047781;28;20128;-64
2020/12/20 12:18:04;;;;;;;6.53;4.47;;;6.60;73.60;;;;;;5038322;28;20036;-64
2020/12/20 12:20:30;;;;;;;6.90;3.85;;;6.60;74.20;;;;;;5042276;28;20033;-64
2020/12/20 12:22:57;;;;;;;5.93;3.70;;;6.50;74.30;;;;;;5043072;28;20021;-64
2020/12/20 12:25:23;;;;;;;6.55;4.35;;;6.50;74.40;;;;;;5045390;28;20052;-64
2020/12/20 12:27:50;;;;;;;6.15;4.20;;;6.50;74.30;;;;;;5025254;28;20025;-66
2020/12/20 12:30:16;;;;;;;6.97;4.78;;;6.60;74.00;;;;;;5043368;28;20142;-66
2020/12/20 12:32:42;;;;;;;7.95;5.03;;;6.70;74.20;;;;;;5041863;28;20100;-65
2020/12/20 12:35:09;;;;;;;5.50;3.90;;;6.80;74.40;;;;;;5045622;28;20033;-65
2020/12/20 12:37:35;;;;;;;5.60;3.92;;;6.80;74.40;;;;;;5046884;28;20039;-64
2020/12/20 12:40:03;;;;;;;5.43;4.10;;;6.80;74.20;;;;;;5043000;28;20496;-65
2020/12/20 12:42:29;;;;;;;5.97;4.15;;;6.70;74.00;;;;;;5042071;28;20014;-65
2020/12/20 12:44:54;;;;;;;8.73;5.03;;;6.50;74.90;;;;;;5043725;28;20469;-64
2020/12/20 12:47:21;;;;;;;7.50;4.68;;;6.50;75.10;;;;;;5007816;28;20041;-65
2020/12/20 12:49:47;;;;;;;7.63;5.30;;;6.40;75.00;;;;;;5032769;28;20025;-65
2020/12/20 12:52:13;;;;;;;11.75;6.75;;;6.40;75.30;;;;;;5033559;28;20655;-65